Orbital elements of FENGYUN 1C DEB
| Launched | 9 May 1999 |
| Flight ended | – |
| Launch site | Taiyuan Space Center, PRC |
| Owner | People's Republic of China |
| NORAD ID | 32357 |
| Date fetched |
Epoch osculation |
Inc. [°] |
Ecc. | RA asc node [hr] |
Arg Peri. [°] |
Mean anom [°] |
Mean motion [rev/day] |
Abs. mag |
| Date fetched |
Epoch osculation |
Inc. [°] |
Ecc. | RA asc node [hr] |
Arg Peri. [°] |
Mean anom [°] |
Mean motion [rev/day] |
Abs. mag |
| 2026 May 08 17:57 | 2026 May 05 08:17:33 | 98.8336 | 0.04873 | 10.5745 | 167.0326 | 263.7760 | 13.69995 | – |
| 2026 May 07 17:58 | 2026 May 05 08:17:33 | 98.8336 | 0.04873 | 10.5745 | 167.0326 | 263.7760 | 13.69995 | – |
| 2026 May 06 17:57 | 2026 May 05 08:17:33 | 98.8336 | 0.04873 | 10.5745 | 167.0326 | 263.7760 | 13.69995 | – |
| 2026 May 05 17:57 | 2026 May 05 08:17:33 | 98.8336 | 0.04873 | 10.5745 | 167.0326 | 263.7760 | 13.69995 | – |
| 2026 May 04 17:57 | 2026 Apr 28 20:48:42 | 98.8371 | 0.04869 | 10.1760 | 184.1669 | 263.7760 | 13.69995 | – |
| 2026 May 03 17:57 | 2026 Apr 28 20:48:42 | 98.8371 | 0.04869 | 10.1760 | 184.1669 | 263.7760 | 13.69995 | – |
| 2026 May 02 17:57 | 2026 Apr 28 20:48:42 | 98.8371 | 0.04869 | 10.1760 | 184.1669 | 263.7760 | 13.69995 | – |
| 2026 May 01 17:56 | 2026 Apr 28 20:48:42 | 98.8371 | 0.04869 | 10.1760 | 184.1669 | 263.7760 | 13.69995 | – |
| 2026 Apr 30 17:56 | 2026 Apr 28 20:48:42 | 98.8371 | 0.04869 | 10.1760 | 184.1669 | 263.7760 | 13.69995 | – |
| 2026 Apr 29 17:57 | 2026 Apr 22 08:14:44 | 98.8375 | 0.04865 | 9.7746 | 201.4426 | 263.7760 | 13.69995 | – |
| 2026 Apr 28 17:56 | 2026 Apr 22 08:14:44 | 98.8375 | 0.04865 | 9.7746 | 201.4426 | 263.7760 | 13.69995 | – |
| 2026 Apr 27 17:58 | 2026 Apr 22 08:14:44 | 98.8375 | 0.04865 | 9.7746 | 201.4426 | 263.7760 | 13.69995 | – |
| 2026 Apr 26 17:58 | 2026 Apr 22 08:14:44 | 98.8375 | 0.04865 | 9.7746 | 201.4426 | 263.7760 | 13.69995 | – |
| 2026 Apr 25 17:58 | 2026 Apr 22 08:14:44 | 98.8375 | 0.04865 | 9.7746 | 201.4426 | 263.7760 | 13.69995 | – |
| 2026 Apr 24 17:59 | 2026 Apr 22 08:14:44 | 98.8375 | 0.04865 | 9.7746 | 201.4426 | 263.7760 | 13.69995 | – |
| 2026 Apr 23 17:57 | 2026 Apr 18 20:39:22 | 98.8344 | 0.04863 | 9.5601 | 210.6681 | 263.7760 | 13.69995 | – |
| 2026 Apr 22 17:57 | 2026 Apr 18 20:39:22 | 98.8344 | 0.04863 | 9.5601 | 210.6681 | 263.7760 | 13.69995 | – |
| 2026 Apr 21 17:57 | 2026 Apr 18 20:39:22 | 98.8344 | 0.04863 | 9.5601 | 210.6681 | 263.7760 | 13.69995 | – |
| 2026 Apr 20 17:57 | 2026 Apr 18 20:39:22 | 98.8344 | 0.04863 | 9.5601 | 210.6681 | 263.7760 | 13.69995 | – |
| 2026 Apr 19 17:58 | 2026 Apr 18 20:39:22 | 98.8344 | 0.04863 | 9.5601 | 210.6681 | 263.7760 | 13.69995 | – |
| 2026 Apr 18 17:56 | 2026 Apr 12 20:56:03 | 98.8440 | 0.04872 | 9.1916 | 226.6832 | 263.7760 | 13.69995 | – |
| 2026 Apr 16 17:57 | 2026 Apr 12 20:56:03 | 98.8440 | 0.04872 | 9.1916 | 226.6832 | 263.7760 | 13.69995 | – |
| 2026 Apr 14 17:57 | 2026 Apr 12 20:56:03 | 98.8440 | 0.04872 | 9.1916 | 226.6832 | 263.7760 | 13.69995 | – |
| 2026 Apr 13 17:57 | 2026 Apr 12 20:56:03 | 98.8440 | 0.04872 | 9.1916 | 226.6832 | 263.7760 | 13.69995 | – |
| 2026 Apr 12 17:57 | 2026 Apr 01 20:13:49 | 98.8443 | 0.04852 | 8.5133 | 255.7179 | 263.7760 | 13.69995 | – |
| 2026 Apr 11 17:57 | 2026 Apr 01 20:13:49 | 98.8443 | 0.04852 | 8.5133 | 255.7179 | 263.7760 | 13.69995 | – |